Terminal Aerodrome Forecast
Issued by NWS

Home | Current Version | Previous Version | Graphics & Text | Print | Product List | Glossary On
Versions: 1 2 3 4 5 6 7 8 9 10 11 12 13
000
FTUS43 KGRB 250520
TAFATW
TAF
KATW 250520Z 2506/2606 13009KT P6SM BKN150 WS008/17040KT
     FM251100 15009KT P6SM BKN150
     FM251400 16011G17KT P6SM BKN150
     FM252200 12009KT P6SM SCT035 OVC090
     FM260200 11010KT 6SM -SHRA BR OVC035=

USA.gov is the U.S. government's official web portal to all federal, state and local government web resources and services.